Airfield :
LOGIN :

Register | Disclaimer

   EN    FR    IT 

 










Legend :    VFR   Marginal VFR   IFR   Intensive IFR   Very Intensive IFR
Visi :
Ceiling :
>= 8 km
>= 3000ft
5 to 8 km
1000 to 3000 ft
1500m to 5 km
500 to 1000 ft
800 to 1500m
200 to 500 ft
< 800m
< 200 ft
Symbols :   Thunderstorms  Fog  Heavy snow  Heavy precipitations  Wind > 20 kt
SIGMETs :     Misc.  Thunderstorms  Icing  Turbulence  Mountain Waves  Volcanic Ashes







- Airport Elevation : 84 ft
- Download approach charts


LFBC - Cazaux

CURRENT METAR :
  • 291300Z AUTO 26004KT 230V300 9999 BKN006 BKN130 BKN170 19/18 Q1016 TEMPO VRB15G25KT 3000 TSRA BKN010 SCT100TCU

EXPIRED METARs :
  • 291230Z AUTO 23005KT 9999 -RA BKN006/// BKN110/// ///TCU 19/18 Q1016 TEMPO VRB15G25KT 3000 TSRA BKN003 BKN030 BKN090CB
  • 291200Z AUTO 25005KT 220V280 9999 BKN006/// BKN110/// BKN140/// ///TCU 19/18 Q1016 TEMPO VRB15G25KT 3000 TSRA BKN003 BKN030 BKN090CB
  • 291130Z AUTO 24006KT 210V270 9999 SCT005/// BKN130/// BKN160/// ///TCU 19/18 Q1016 TEMPO VRB15G25KT 3000 TSRA BKN003 BKN030 BKN090CB
  • 291100Z AUTO 28006KT 9999 -RA FEW005/// BKN049/// BKN120/// ///TCU 20/18 Q1016 TEMPO VRB15G25KT 3000 TSRA BKN030 BKN090CB
  • 291030Z AUTO 23003KT 200V270 9999 -RA FEW041/// BKN049/// BKN064/// ///TCU 20/18 Q1016 TEMPO VRB15G25KT 3000 TSRA BKN030 BKN090CB

TAF AMD TAF LFBC
Valid from the 29 at 11:00 until the 30 at 09:00 UTC


291100Z 2911/3009 24008KT CAVOK
TEMPO 2911/2915 SHRA BKN010 SCT100TCU
PROB40
TEMPO 2911/2914 VRB15G25KT 3000 TSRA BKN003 BKN030 BKN090CB
BECMG 2920/2922 BKN008 BKN030TCU
TEMPO 2923/3009 5000 SHRA
No reported NOTAMs for that airfield.
1 SIGMET reported for the Bordeaux FIR (LFBB) :
 
Embedded thunderstorms
LFBB SIGMET 7 VALID 291050/291300 LFPW
LFBB BORDEAUX FIR/UIR EMBD TS OBS S OF N4400 AND W OF W00030 TOP FL360 MOV N 30KT NC=



MET'MAP, your aeronautical weather chart ! - Copyright ORBIFLY December 2007 - Disclaimer

ORBIFLY MET'MAP TEAM :

Programming & Development : Alexandra Zaïnal
Concept & Development : Baudouin d'Aumeries
Co-Development & Prog : Marc-Olivier Méhu
Technical & hardware support : Manuel Goepfert

Contact : metmap@orbifly.com




SOURCES & CREDITS :

   NOAA